SVMG/PMV METAR and TAF weather

Enter ICAO airport designator
Station Type Date Time Source
SVMG METAR 2020/09/19 18:02 UTC NOAA

SVMG 191802Z AUTO 09007KT NCD 30/23 Q1011


Station Type Date Time Source
SVMG Decoded METAR 2020/09/19 18:02 UTC NOAA

Margarita / Del Carib, Venezuela (SVMG) 10-55N 063-59W
Sep 19, 2020 - 02:02 PM EDT / 2020.09.19 1802 UTC
Wind: from the E (090 degrees) at 8 MPH (7 KT):0
Temperature: 86 F (30 C)
Heat index: 93.4 F (34.1 C):1
Dew Point: 73 F (23 C)
Relative Humidity: 66%
Pressure (altimeter): 29.85 in. Hg (1011 hPa)
ob: SVMG 191802Z AUTO 09007KT NCD 30/23 Q1011
cycle: 18

Station Type Date Time Source
SVMG TAF 2020/09/19 18:09 UTC NOAA

TAF SVMG 191600Z 1918/2018 27003KT 9999 FEW016 TX34/1918Z TN24/1809Z
BECMG 1918/1922 28008KT 9999 FEW016

Example: see airport list